Time;durP1;ratioP1;P1;durP2;ratioP2;P2;SDS_P1;SDS_P2;PMS_P1;PMS_P2;Temp;Humidity;BMP_temperature;BMP_pressure;BME280_temperature;BME280_humidity;BME280_pressure;Samples;Min_cycle;Max_cycle;Signal;HPM_P1;HPM_P2
2023/12/13 00:01:07;;;;;;;5.32;2.90;;;;;;;4.95;100.00;99336.69;10506666;28;20041;-82
2023/12/13 00:06:08;;;;;;;8.00;2.75;;;;;;;5.02;100.00;99334.34;10473067;28;20115;-82
2023/12/13 00:11:11;;;;;;;8.13;2.90;;;;;;;4.89;100.00;99326.03;10487588;28;20109;-82
2023/12/13 00:16:12;;;;;;;12.77;3.20;;;;;;;4.89;100.00;99320.84;10455412;28;20032;-82
2023/12/13 00:21:15;;;;;;;7.65;2.47;;;;;;;5.03;100.00;99324.06;10521484;28;20109;-82
2023/12/13 00:26:16;;;;;;;7.63;2.90;;;;;;;5.10;100.00;99328.72;10488405;28;20041;-82
2023/12/13 00:31:16;;;;;;;9.35;3.70;;;;;;;5.19;100.00;99337.72;10487129;28;20407;-82
2023/12/13 00:36:17;;;;;;;7.57;2.80;;;;;;;5.20;100.00;99340.38;10487880;28;20543;-83
2023/12/13 00:41:17;;;;;;;12.65;3.45;;;;;;;5.16;100.00;99330.69;10488291;28;20060;-83
2023/12/13 00:46:22;;;;;;;5.50;2.65;;;;;;;5.20;100.00;99322.22;10485647;28;20051;-82
2023/12/13 00:51:23;;;;;;;7.75;3.38;;;;;;;5.26;100.00;99321.63;10486566;28;20076;-82
2023/12/13 00:56:23;;;;;;;41.58;7.35;;;;;;;5.28;100.00;99328.63;10487503;28;20123;-82
2023/12/13 01:01:24;;;;;;;11.27;3.72;;;;;;;5.34;100.00;99325.44;10486737;28;20052;-82
2023/12/13 01:06:24;;;;;;;8.13;4.00;;;;;;;5.39;100.00;99333.41;10486613;28;20132;-83
2023/12/13 01:11:25;;;;;;;15.75;4.50;;;;;;;5.36;100.00;99317.69;10520164;28;20434;-83
2023/12/13 01:16:25;;;;;;;9.85;3.15;;;;;;;5.33;100.00;99317.56;10478651;28;20123;-83
2023/12/13 01:21:28;;;;;;;7.75;3.47;;;;;;;5.26;100.00;99316.44;10468480;28;20066;-83
2023/12/13 01:26:29;;;;;;;11.18;4.03;;;;;;;5.26;100.00;99319.03;10470337;28;20041;-83
2023/12/13 01:31:29;;;;;;;13.20;3.83;;;;;;;5.32;100.00;99328.75;10484798;28;20551;-83
2023/12/13 01:36:30;;;;;;;9.65;4.45;;;;;;;5.42;100.00;99317.97;10484609;28;20129;-83
2023/12/13 01:41:30;;;;;;;13.55;5.07;;;;;;;5.43;100.00;99320.66;10484499;28;20173;-83
2023/12/13 01:46:31;;;;;;;11.43;5.32;;;;;;;5.44;100.00;99317.22;10484956;28;20543;-83
2023/12/13 01:51:33;;;;;;;13.82;3.97;;;;;;;5.49;100.00;99321.72;10468047;28;20127;-83
2023/12/13 01:56:33;;;;;;;16.30;4.20;;;;;;;5.50;100.00;99324.38;10466382;28;20032;-83
2023/12/13 02:01:34;;;;;;;9.50;3.90;;;;;;;5.55;100.00;99322.00;10485376;28;20112;-82
2023/12/13 02:06:34;;;;;;;14.07;4.28;;;;;;;5.64;100.00;99316.28;10483876;28;20060;-82
2023/12/13 02:11:35;;;;;;;16.70;6.07;;;;;;;5.65;100.00;99315.47;10441553;28;20484;-82
2023/12/13 02:16:37;;;;;;;24.02;5.82;;;;;;;5.66;100.00;99302.56;10442167;28;20069;-83
2023/12/13 02:21:37;;;;;;;15.95;5.03;;;;;;;5.78;100.00;99306.50;10425741;28;20100;-83
2023/12/13 02:26:41;;;;;;;16.88;5.05;;;;;;;5.73;100.00;99306.31;10474670;28;20115;-83
2023/12/13 02:31:41;;;;;;;10.43;4.80;;;;;;;5.67;100.00;99304.34;10466920;28;20043;-83
2023/12/13 02:36:45;;;;;;;14.45;4.43;;;;;;;5.69;100.00;99296.59;10448609;28;20044;-83
2023/12/13 02:41:46;;;;;;;8.93;3.85;;;;;;;5.73;100.00;99293.31;10482821;28;20094;-83
2023/12/13 02:46:46;;;;;;;27.90;5.32;;;;;;;5.71;100.00;99297.56;10483238;28;20127;-83
2023/12/13 02:51:47;;;;;;;19.77;7.70;;;;;;;5.75;100.00;99290.81;10482846;28;20191;-83
2023/12/13 02:56:47;;;;;;;15.77;5.00;;;;;;;5.87;100.00;99292.19;10483858;28;20376;-83
2023/12/13 03:01:48;;;;;;;11.73;5.25;;;;;;;6.02;100.00;99289.38;10482980;28;20044;-83
2023/12/13 03:06:48;;;;;;;17.63;5.78;;;;;;;6.09;100.00;99285.28;10464968;28;20143;-83
2023/12/13 03:11:49;;;;;;;16.13;6.40;;;;;;;6.15;100.00;99288.13;10481232;28;20373;-83
2023/12/13 03:16:49;;;;;;;14.98;5.70;;;;;;;6.22;100.00;99278.91;10463996;28;20136;-83
2023/12/13 03:21:50;;;;;;;24.48;6.90;;;;;;;6.22;100.00;99284.09;10465773;28;20131;-83
2023/12/13 03:26:50;;;;;;;17.77;6.60;;;;;;;6.18;100.00;99282.19;10479369;28;20495;-83
2023/12/13 03:31:51;;;;;;;26.90;6.97;;;;;;;6.30;100.00;99271.38;10507838;28;20124;-82
2023/12/13 03:36:51;;;;;;;14.68;5.57;;;;;;;6.30;100.00;99274.88;10483621;28;20093;-82
2023/12/13 03:41:52;;;;;;;18.60;6.95;;;;;;;6.34;100.00;99273.28;10482194;28;20064;-82
2023/12/13 03:46:56;;;;;;;22.88;6.90;;;;;;;6.36;100.00;99265.56;10482602;28;20127;-83
2023/12/13 03:51:57;;;;;;;22.80;7.28;;;;;;;6.46;100.00;99262.50;10481633;28;20450;-83
2023/12/13 03:56:57;;;;;;;19.48;6.82;;;;;;;6.43;100.00;99254.56;10480104;28;20048;-82
2023/12/13 04:01:57;;;;;;;23.00;6.25;;;;;;;6.42;100.00;99258.88;10483253;28;20432;-83
2023/12/13 04:06:59;;;;;;;21.08;7.65;;;;;;;6.46;100.00;99254.69;10487130;28;20119;-83
2023/12/13 04:12:02;;;;;;;26.17;8.30;;;;;;;6.52;100.00;99248.81;10498710;28;20037;-83
2023/12/13 04:17:02;;;;;;;21.52;6.30;;;;;;;6.61;100.00;99249.16;10478970;28;20438;-82
2023/12/13 04:22:03;;;;;;;31.48;9.30;;;;;;;6.58;100.00;99246.47;10488899;28;20093;-83
2023/12/13 04:27:04;;;;;;;22.33;8.50;;;;;;;6.65;100.00;99245.84;10486732;28;20076;-83
2023/12/13 04:32:04;;;;;;;24.00;7.18;;;;;;;6.65;100.00;99245.84;10471495;28;20112;-82
2023/12/13 04:37:05;;;;;;;27.02;8.63;;;;;;;6.67;100.00;99245.94;10488316;28;20047;-82
2023/12/13 04:42:06;;;;;;;14.85;5.60;;;;;;;6.59;100.00;99243.03;10488689;28;20127;-82
2023/12/13 04:47:06;;;;;;;30.67;9.63;;;;;;;6.55;100.00;99247.25;10486206;28;20094;-83
2023/12/13 04:52:07;;;;;;;19.17;6.70;;;;;;;6.53;100.00;99246.31;10487553;28;20123;-83
2023/12/13 04:57:08;;;;;;;20.40;6.93;;;;;;;6.50;100.00;99243.59;10469565;28;20555;-83
2023/12/13 05:02:08;;;;;;;18.30;6.97;;;;;;;6.49;100.00;99236.63;10455450;28;20154;-82
2023/12/13 05:07:09;;;;;;;15.95;6.32;;;;;;;6.52;100.00;99225.44;10468620;28;20484;-83
2023/12/13 05:12:09;;;;;;;23.38;6.40;;;;;;;6.38;100.00;99227.53;10486752;28;20040;-83
2023/12/13 05:17:10;;;;;;;29.48;10.27;;;;;;;6.23;100.00;99217.41;10449913;28;20043;-82
2023/12/13 05:22:10;;;;;;;16.65;6.45;;;;;;;6.23;100.00;99212.22;10388064;28;20056;-82
2023/12/13 05:27:11;;;;;;;19.50;8.48;;;;;;;6.31;100.00;99210.78;10391900;28;20417;-82
2023/12/13 05:32:11;;;;;;;25.88;9.20;;;;;;;6.27;100.00;99206.31;10397366;28;20484;-83
2023/12/13 05:37:12;;;;;;;25.27;6.90;;;;;;;6.27;100.00;99202.03;10403106;28;20094;-82
2023/12/13 05:42:12;;;;;;;25.92;7.30;;;;;;;6.33;100.00;99203.94;10458955;28;20048;-81
2023/12/13 05:47:13;;;;;;;19.60;8.65;;;;;;;6.29;100.00;99212.44;10440603;28;20060;-85
2023/12/13 05:52:14;;;;;;;23.80;9.98;;;;;;;6.30;100.00;99215.13;10432177;28;20033;-84
2023/12/13 05:57:15;;;;;;;32.33;8.93;;;;;;;6.26;100.00;99218.44;10428658;28;20041;-83
2023/12/13 06:02:16;;;;;;;29.50;7.25;;;;;;;6.27;100.00;99220.22;10443587;28;20635;-83
2023/12/13 06:07:16;;;;;;;23.33;7.87;;;;;;;6.30;100.00;99225.53;10433256;28;20042;-83
2023/12/13 06:12:17;;;;;;;25.13;7.38;;;;;;;6.38;100.00;99228.41;10435714;28;20135;-84
2023/12/13 06:17:18;;;;;;;33.88;9.45;;;;;;;6.38;100.00;99231.00;10431879;28;20505;-81
2023/12/13 06:22:18;;;;;;;28.33;7.35;;;;;;;6.36;100.00;99232.66;10440428;28;20460;-85
2023/12/13 06:27:19;;;;;;;22.00;7.50;;;;;;;6.38;100.00;99230.13;10413400;28;20124;-87
2023/12/13 06:32:20;;;;;;;27.13;7.87;;;;;;;6.39;100.00;99239.69;10429205;28;20059;-87
2023/12/13 06:37:20;;;;;;;20.45;6.32;;;;;;;6.32;100.00;99239.47;10436740;28;20033;-87
2023/12/13 06:42:21;;;;;;;26.00;9.75;;;;;;;6.37;100.00;99230.94;10439926;28;20481;-85
2023/12/13 06:47:21;;;;;;;31.27;8.70;;;;;;;6.36;100.00;99248.25;10441077;28;20116;-86
2023/12/13 06:52:22;;;;;;;25.63;8.88;;;;;;;6.28;100.00;99239.25;10439399;28;20064;-88
2023/12/13 06:57:22;;;;;;;21.02;7.00;;;;;;;6.22;100.00;99237.31;10451277;28;20400;-87
2023/12/13 07:02:24;;;;;;;19.38;7.32;;;;;;;6.20;100.00;99244.19;10439509;28;20120;-85
2023/12/13 07:07:25;;;;;;;23.35;8.25;;;;;;;6.24;100.00;99242.56;10440814;28;20037;-88
2023/12/13 07:12:29;;;;;;;26.13;7.93;;;;;;;6.30;100.00;99241.09;10438460;28;20029;-89
2023/12/13 07:17:29;;;;;;;32.05;7.40;;;;;;;6.31;100.00;99237.69;10474371;28;20044;-87
2023/12/13 07:22:30;;;;;;;28.13;10.23;;;;;;;6.32;100.00;99244.66;10432573;28;20129;-88
2023/12/13 07:27:42;;;;;;;28.98;7.35;;;;;;;6.30;100.00;99248.91;10440612;28;20033;-88
2023/12/13 07:32:44;;;;;;;22.38;9.43;;;;;;;6.36;100.00;99256.03;10462174;28;20047;-87
2023/12/13 07:37:45;;;;;;;16.40;4.78;;;;;;;6.38;100.00;99249.19;10441328;28;20064;-87
2023/12/13 07:42:47;;;;;;;15.63;4.23;;;;;;;6.47;100.00;99267.72;10480390;28;20125;-88
2023/12/13 07:47:49;;;;;;;13.70;6.97;;;;;;;6.50;100.00;99259.19;10480917;28;20484;-87
2023/12/13 07:52:50;;;;;;;21.30;7.85;;;;;;;6.58;100.00;99256.84;10480931;28;20041;-89
2023/12/13 07:57:50;;;;;;;23.85;6.82;;;;;;;6.66;100.00;99258.03;10485393;28;20123;-88
2023/12/13 08:02:51;;;;;;;18.30;7.95;;;;;;;6.77;100.00;99258.44;10488133;28;20063;-88
2023/12/13 08:07:51;;;;;;;17.58;5.70;;;;;;;6.83;100.00;99256.06;10450375;28;20037;-87
2023/12/13 08:12:52;;;;;;;19.27;5.97;;;;;;;6.92;100.00;99260.72;10443682;28;20106;-88
2023/12/13 08:17:52;;;;;;;15.50;5.20;;;;;;;7.00;100.00;99269.69;10444263;28;20090;-88
2023/12/13 08:22:53;;;;;;;16.48;4.88;;;;;;;7.06;100.00;99269.03;10445503;28;20136;-91
2023/12/13 08:27:53;;;;;;;19.58;7.45;;;;;;;7.01;100.00;99265.38;10451015;28;20079;-91
2023/12/13 08:32:54;;;;;;;15.05;4.75;;;;;;;6.95;100.00;99278.16;10485800;28;20043;-90
2023/12/13 08:37:54;;;;;;;19.13;7.28;;;;;;;6.85;100.00;99272.63;10518011;28;20361;-89
2023/12/13 08:42:55;;;;;;;15.27;5.07;;;;;;;6.76;100.00;99280.94;10470043;28;20098;-89
2023/12/13 08:47:55;;;;;;;12.98;4.63;;;;;;;6.74;100.00;99280.00;10502653;28;20544;-90
2023/12/13 08:52:56;;;;;;;16.40;6.05;;;;;;;6.68;100.00;99281.50;10486674;28;20071;-88
2023/12/13 08:57:56;;;;;;;13.48;4.68;;;;;;;6.65;100.00;99283.97;10487700;28;20033;-90
2023/12/13 09:02:57;;;;;;;14.80;5.00;;;;;;;6.60;100.00;99289.00;10487764;28;20559;-91
2023/12/13 09:07:57;;;;;;;14.35;4.72;;;;;;;6.59;100.00;99293.31;10484487;28;20128;-90
2023/12/13 09:12:58;;;;;;;16.30;5.53;;;;;;;6.56;100.00;99293.22;10499852;28;20142;-88
2023/12/13 09:17:58;;;;;;;12.10;5.25;;;;;;;6.54;100.00;99291.34;10460769;28;20174;-88
2023/12/13 09:22:59;;;;;;;10.93;4.45;;;;;;;6.51;100.00;99299.03;10483792;28;20041;-89
2023/12/13 09:28:01;;;;;;;15.88;7.78;;;;;;;6.52;100.00;99304.31;10486499;28;20086;-94
2023/12/13 09:33:02;;;;;;;13.43;4.40;;;;;;;6.53;100.00;99305.19;10467490;28;20040;-91
2023/12/13 09:38:04;;;;;;;16.17;4.97;;;;;;;6.55;100.00;99314.81;10484789;28;20834;-89
2023/12/13 09:43:05;;;;;;;12.68;3.15;;;;;;;6.55;100.00;99316.53;10467364;28;20090;-89
2023/12/13 09:48:05;;;;;;;5.75;2.70;;;;;;;6.58;100.00;99327.03;10467149;28;20503;-87
2023/12/13 09:53:06;;;;;;;7.45;2.63;;;;;;;6.59;100.00;99328.81;10468960;28;20040;-87
2023/12/13 09:58:06;;;;;;;10.40;3.50;;;;;;;7.08;100.00;99340.22;10484723;28;20476;-88
2023/12/13 10:03:07;;;;;;;16.90;4.38;;;;;;;7.55;100.00;99336.69;10485436;28;20131;-87
2023/12/13 10:08:08;;;;;;;12.48;5.60;;;;;;;7.72;100.00;99342.44;10485949;28;20044;-88
2023/12/13 10:13:10;;;;;;;7.35;3.53;;;;;;;8.08;100.00;99337.63;10450996;28;20044;-87
2023/12/13 10:18:10;;;;;;;12.90;6.43;;;;;;;8.05;100.00;99353.16;10484609;28;20481;-87
2023/12/13 10:23:11;;;;;;;13.40;3.97;;;;;;;8.16;100.00;99348.28;10484630;28;20068;-86
2023/12/13 10:28:11;;;;;;;12.98;3.78;;;;;;;8.27;100.00;99347.75;10467102;28;20051;-87
2023/12/13 10:33:12;;;;;;;11.02;4.43;;;;;;;8.45;100.00;99344.88;10482896;28;20029;-87
2023/12/13 10:38:13;;;;;;;11.55;3.60;;;;;;;8.33;100.00;99343.63;10465366;28;20087;-87
2023/12/13 10:43:14;;;;;;;9.37;4.40;;;;;;;8.45;100.00;99332.69;10469663;28;20075;-86
2023/12/13 10:48:16;;;;;;;10.27;4.20;;;;;;;9.04;100.00;99328.41;10456695;28;20115;-86
2023/12/13 10:53:16;;;;;;;;;;;;;;;9.30;100.00;99318.69;10479506;28;20040;-87
2023/12/13 10:58:17;;;;;;;17.48;2.78;;;;;;;9.50;100.00;99298.38;10474811;28;20386;-86
2023/12/13 11:03:47;;;;;;;10.85;3.38;;;;;;;9.35;100.00;99288.38;10469239;28;20029;-90
2023/12/13 11:08:49;;;;;;;11.65;2.28;;;;;;;9.19;100.00;99265.31;10435889;28;20037;-85
2023/12/13 11:13:50;;;;;;;5.70;2.78;;;;;;;9.02;100.00;99243.97;10428188;28;20047;-91
2023/12/13 11:18:52;;;;;;;9.00;3.25;;;;;;;8.65;100.00;99218.59;10438538;28;20467;-91
2023/12/13 11:23:54;;;;;;;11.13;5.05;;;;;;;8.44;100.00;99199.69;10459807;28;20400;-82
2023/12/13 11:28:56;;;;;;;13.57;3.03;;;;;;;8.37;100.00;99198.63;10453793;28;20070;-85
2023/12/13 11:33:56;;;;;;;13.75;4.88;;;;;;;8.35;100.00;99197.69;10465211;28;20049;-85
2023/12/13 11:38:59;;;;;;;9.25;2.95;;;;;;;8.22;100.00;99210.34;10441737;28;20122;-84
2023/12/13 11:43:59;;;;;;;;;;;;;;;8.08;100.00;99225.56;10451860;28;20048;-84
2023/12/13 11:48:59;;;;;;;5.32;2.75;;;;;;;8.10;100.00;99236.03;10478325;28;20361;-86
2023/12/13 11:54:00;;;;;;;11.50;3.58;;;;;;;8.29;100.00;99244.41;10454251;28;20094;-93
2023/12/13 11:59:01;;;;;;;8.57;3.65;;;;;;;8.62;100.00;99238.47;10454648;28;20119;-94
2023/12/13 12:04:02;;;;;;;11.02;3.72;;;;;;;8.75;100.00;99240.59;10460945;28;20063;-88
2023/12/13 12:09:03;;;;;;;6.87;3.33;;;;;;;8.80;100.00;99232.94;10462255;28;20044;-93
2023/12/13 12:14:09;;;;;;;7.20;2.38;;;;;;;8.66;100.00;99229.91;10446340;28;20099;-83
2023/12/13 12:19:10;;;;;;;9.88;3.13;;;;;;;9.11;100.00;99231.19;10456818;28;20037;-86
2023/12/13 12:24:11;;;;;;;10.50;2.80;;;;;;;9.59;100.00;99216.75;10421354;28;20463;-87
2023/12/13 12:29:11;;;;;;;5.20;3.22;;;;;;;9.83;100.00;99211.25;10431587;28;20040;-86
2023/12/13 12:34:12;;;;;;;6.07;2.35;;;;;;;9.74;100.00;99200.56;10453251;28;20066;-84
2023/12/13 12:39:13;;;;;;;11.70;3.25;;;;;;;9.96;100.00;99201.09;10477852;28;20164;-84
2023/12/13 12:44:13;;;;;;;5.32;2.75;;;;;;;10.05;100.00;99203.00;10468998;28;20143;-90
2023/12/13 12:49:14;;;;;;;9.82;2.80;;;;;;;9.95;100.00;99202.81;10495585;28;20119;-91
2023/12/13 12:54:14;;;;;;;9.13;2.88;;;;;;;9.98;100.00;99199.41;10486156;28;20064;-90
2023/12/13 12:59:15;;;;;;;1.92;1.13;;;;;;;9.73;100.00;99211.88;10468536;28;20089;-91
2023/12/13 13:04:19;;;;;;;6.07;1.83;;;;;;;9.78;100.00;99218.09;10487756;28;20055;-90
2023/12/13 13:09:19;;;;;;;3.97;1.17;;;;;;;10.01;100.00;99215.16;10469931;28;20047;-90
2023/12/13 13:14:21;;;;;;;3.67;1.45;;;;;;;10.31;100.00;99227.16;10465151;28;20124;-89
2023/12/13 13:19:21;;;;;;;2.97;0.93;;;;;;;10.61;100.00;99218.25;10465960;28;20089;-89
2023/12/13 13:24:22;;;;;;;6.50;2.92;;;;;;;10.13;100.00;99230.22;10469718;28;20044;-88
2023/12/13 13:29:23;;;;;;;5.25;1.17;;;;;;;9.80;100.00;99239.91;10485096;28;20068;-85
2023/12/13 13:34:23;;;;;;;8.32;2.13;;;;;;;9.52;100.00;99257.50;10484282;28;20135;-89
2023/12/13 13:39:24;;;;;;;10.27;2.95;;;;;;;9.23;100.00;99261.94;10500314;28;20094;-89
2023/12/13 13:44:25;;;;;;;2.95;0.82;;;;;;;8.94;100.00;99273.34;10502715;28;20093;-90
2023/12/13 13:49:26;;;;;;;2.65;1.30;;;;;;;9.10;100.00;99273.78;10467416;28;20047;-89
2023/12/13 13:54:26;;;;;;;4.70;1.60;;;;;;;9.41;100.00;99279.84;10472314;28;20040;-89
2023/12/13 13:59:27;;;;;;;3.95;2.35;;;;;;;9.63;100.00;99276.06;10483168;28;20036;-89
2023/12/13 14:04:27;;;;;;;3.58;1.70;;;;;;;9.65;100.00;99284.81;10484087;28;20105;-89
2023/12/13 14:09:28;;;;;;;1.67;0.73;;;;;;;9.54;100.00;99287.16;10482839;28;20476;-89
2023/12/13 14:14:29;;;;;;;5.63;2.58;;;;;;;9.27;100.00;99299.47;10461437;28;20172;-91
2023/12/13 14:19:32;;;;;;;2.40;1.38;;;;;;;9.00;100.00;99303.06;10458203;28;20098;-84
2023/12/13 14:24:33;;;;;;;2.45;1.38;;;;;;;8.72;100.00;99312.69;10480738;28;20104;-87
2023/12/13 14:29:33;;;;;;;4.90;2.72;;;;;;;8.45;100.00;99331.81;10464469;28;20040;-89
2023/12/13 14:34:34;;;;;;;3.80;1.25;;;;;;;8.27;100.00;99345.13;10485134;28;20128;-89
2023/12/13 14:39:34;;;;;;;2.63;1.38;;;;;;;8.10;100.00;99349.81;10484845;28;20041;-85
2023/12/13 14:44:35;;;;;;;3.17;1.73;;;;;;;7.85;100.00;99349.84;10465211;28;20804;-92
2023/12/13 14:49:35;;;;;;;5.30;1.70;;;;;;;7.68;100.00;99367.53;10463273;28;20055;-91
2023/12/13 14:54:36;;;;;;;4.13;1.75;;;;;;;7.58;100.00;99384.50;10464903;28;20123;-91
2023/12/13 14:59:36;;;;;;;4.72;1.83;;;;;;;7.51;100.00;99405.97;10482096;28;20037;-91
2023/12/13 15:04:38;;;;;;;3.83;1.13;;;;;;;7.42;100.00;99426.44;10482839;28;20040;-91
2023/12/13 15:09:40;;;;;;;1.83;1.33;;;;;;;7.27;100.00;99413.75;10493698;28;20044;-93
2023/12/13 15:14:41;;;;;;;11.27;1.73;;;;;;;7.13;100.00;99429.72;10465404;28;20398;-89
2023/12/13 15:19:41;;;;;;;5.50;3.03;;;;;;;6.97;100.00;99430.84;10515874;28;20043;-91
2023/12/13 15:24:42;;;;;;;7.22;2.13;;;;;;;6.84;100.00;99437.28;10480058;28;20087;-88
2023/12/13 15:29:43;;;;;;;6.55;1.30;;;;;;;6.71;100.00;99435.91;10481115;28;20121;-92
2023/12/13 15:34:43;;;;;;;1.50;0.82;;;;;;;6.60;100.00;99463.16;10477647;28;20495;-89
2023/12/13 15:39:44;;;;;;;3.05;1.52;;;;;;;6.46;100.00;99470.41;10480729;28;20128;-87
2023/12/13 15:44:44;;;;;;;4.32;1.70;;;;;;;6.30;100.00;99479.25;10479774;28;20571;-87
2023/12/13 15:49:45;;;;;;;4.47;2.50;;;;;;;6.25;100.00;99491.16;10480413;28;20131;-92
2023/12/13 15:54:45;;;;;;;4.65;1.65;;;;;;;6.26;100.00;99503.34;10479269;28;20455;-91
2023/12/13 15:59:46;;;;;;;3.70;2.33;;;;;;;6.19;100.00;99522.97;10513442;28;20036;-93
2023/12/13 16:04:46;;;;;;;14.30;2.95;;;;;;;6.21;100.00;99528.22;10481410;28;20043;-91
2023/12/13 16:09:47;;;;;;;3.50;2.67;;;;;;;6.16;100.00;99536.72;10480956;28;20041;-92
2023/12/13 16:14:47;;;;;;;5.28;3.20;;;;;;;6.15;100.00;99547.94;10480345;28;20116;-92
2023/12/13 16:19:48;;;;;;;8.77;3.25;;;;;;;6.11;100.00;99550.34;10488357;28;20132;-92
2023/12/13 16:24:49;;;;;;;7.30;4.28;;;;;;;5.99;100.00;99548.03;10486448;28;20123;-92
2023/12/13 16:29:49;;;;;;;10.88;4.80;;;;;;;5.96;100.00;99569.56;10507858;28;20056;-91
2023/12/13 16:34:50;;;;;;;7.80;6.05;;;;;;;5.96;100.00;99584.25;10486164;28;20117;-89
2023/12/13 16:39:50;;;;;;;10.27;5.63;;;;;;;5.93;100.00;99589.31;10487928;28;20037;-88
2023/12/13 16:44:51;;;;;;;8.82;5.60;;;;;;;5.89;100.00;99593.50;10486514;28;20076;-91
2023/12/13 16:49:51;;;;;;;9.32;4.57;;;;;;;5.87;100.00;99601.19;10488132;28;20541;-92
2023/12/13 16:54:52;;;;;;;10.07;5.82;;;;;;;5.79;100.00;99607.75;10504304;28;20122;-93
2023/12/13 16:59:52;;;;;;;12.23;5.90;;;;;;;5.72;100.00;99619.56;10517992;28;20131;-92
2023/12/13 17:04:53;;;;;;;9.85;6.63;;;;;;;5.71;100.00;99628.16;10486813;28;20488;-90
2023/12/13 17:09:55;;;;;;;9.93;6.55;;;;;;;5.75;100.00;99634.38;10479349;27;20563;-91
2023/12/13 17:15:00;;;;;;;16.17;8.63;;;;;;;5.76;100.00;99649.13;10518244;28;20093;-92
2023/12/13 17:20:00;;;;;;;14.52;8.07;;;;;;;5.80;100.00;99661.44;10489859;28;20282;-92
2023/12/13 17:25:01;;;;;;;23.60;8.48;;;;;;;5.92;100.00;99671.53;10484787;28;20568;-91
2023/12/13 17:30:03;;;;;;;20.40;10.73;;;;;;;6.01;100.00;99682.41;10466824;28;20115;-92
2023/12/13 17:35:04;;;;;;;22.27;11.80;;;;;;;6.01;100.00;99692.78;10468034;28;20038;-92
2023/12/13 17:40:05;;;;;;;16.48;11.23;;;;;;;5.93;100.00;99712.28;10485209;28;20033;-91
2023/12/13 17:45:06;;;;;;;23.00;13.77;;;;;;;5.89;100.00;99725.94;10483583;28;20574;-92
2023/12/13 17:50:06;;;;;;;19.58;13.13;;;;;;;5.91;100.00;99732.09;10452315;28;20056;-92
2023/12/13 17:55:07;;;;;;;21.58;13.27;;;;;;;5.85;100.00;99732.66;10467496;28;20067;-92
2023/12/13 18:00:08;;;;;;;20.90;13.30;;;;;;;5.83;100.00;99738.63;10465246;28;20561;-91
2023/12/13 18:05:09;;;;;;;20.33;11.48;;;;;;;5.85;100.00;99749.97;10483820;28;20500;-91
2023/12/13 18:10:10;;;;;;;21.77;12.05;;;;;;;5.87;100.00;99754.41;10480844;28;20041;-91
2023/12/13 18:15:12;;;;;;;24.08;13.35;;;;;;;5.85;100.00;99758.63;10480926;28;20404;-91
2023/12/13 18:20:13;;;;;;;24.52;14.10;;;;;;;5.85;100.00;99774.22;10480546;28;20507;-91
2023/12/13 18:25:14;;;;;;;22.03;11.47;;;;;;;5.79;100.00;99786.03;10481769;28;20488;-91
2023/12/13 18:30:15;;;;;;;27.90;15.50;;;;;;;5.76;100.00;99784.16;10481942;28;20377;-89
2023/12/13 18:35:15;;;;;;;21.15;13.77;;;;;;;5.75;100.00;99800.53;10480681;28;20043;-92
2023/12/13 18:40:16;;;;;;;23.40;14.50;;;;;;;5.79;100.00;99814.59;10482420;28;20067;-90
2023/12/13 18:45:19;;;;;;;20.63;13.60;;;;;;;5.79;100.00;99819.78;10480249;28;20131;-88
2023/12/13 18:50:19;;;;;;;23.98;16.90;;;;;;;5.79;100.00;99831.03;10480810;28;20039;-89
2023/12/13 18:55:20;;;;;;;21.77;15.40;;;;;;;5.80;100.00;99834.53;10479864;28;20047;-87
2023/12/13 19:00:21;;;;;;;29.13;17.67;;;;;;;5.82;100.00;99848.50;10423727;28;1163389;-88
2023/12/13 19:05:22;;;;;;;20.38;14.48;;;;;;;5.92;100.00;99861.13;10424565;28;20094;-89
2023/12/13 19:10:22;;;;;;;25.98;15.30;;;;;;;6.09;100.00;99868.91;10453829;28;20175;-91
2023/12/13 19:15:23;;;;;;;21.42;14.63;;;;;;;6.07;100.00;99874.00;10482898;28;20123;-92
2023/12/13 19:20:23;;;;;;;18.05;12.57;;;;;;;6.17;100.00;99881.44;10481058;28;20483;-90
2023/12/13 19:25:24;;;;;;;45.95;15.07;;;;;;;6.26;100.00;99895.72;10479470;28;20127;-90
2023/12/13 19:30:24;;;;;;;26.13;15.88;;;;;;;6.17;100.00;99899.63;10480215;28;20119;-87
2023/12/13 19:35:25;;;;;;;26.08;15.88;;;;;;;6.09;100.00;99907.88;10479635;28;20502;-87
2023/12/13 19:40:25;;;;;;;30.02;18.75;;;;;;;6.08;100.00;99911.28;10464373;28;20131;-87
2023/12/13 19:45:26;;;;;;;33.55;19.10;;;;;;;6.04;100.00;99923.22;10461528;28;20044;-87
2023/12/13 19:50:26;;;;;;;33.97;22.33;;;;;;;6.00;100.00;99929.97;10484227;28;20064;-87
2023/12/13 19:55:27;;;;;;;36.10;24.67;;;;;;;6.07;100.00;99941.56;10490194;28;20075;-86
2023/12/13 20:00:27;;;;;;;37.17;25.73;;;;;;;6.15;100.00;99952.34;10489587;28;20663;-88
2023/12/13 20:05:29;;;;;;;41.58;27.95;;;;;;;6.21;100.00;99956.94;10490003;28;20037;-87
2023/12/13 20:10:30;;;;;;;44.25;29.00;;;;;;;6.17;100.00;99962.00;10463102;28;20043;-86
2023/12/13 20:15:30;;;;;;;48.75;25.80;;;;;;;6.23;100.00;99973.50;10488899;28;20047;-85
2023/12/13 20:20:31;;;;;;;45.00;26.60;;;;;;;6.26;100.00;99984.97;10488428;28;20071;-89
2023/12/13 20:25:31;;;;;;;50.63;27.58;;;;;;;6.34;100.00;99987.94;10487657;28;20044;-88
2023/12/13 20:30:32;;;;;;;43.58;25.77;;;;;;;6.39;100.00;100002.06;10486481;28;20123;-89
2023/12/13 20:35:32;;;;;;;44.42;24.40;;;;;;;6.38;100.00;99994.19;10487221;28;20072;-88
2023/12/13 20:40:33;;;;;;;40.85;22.38;;;;;;;6.35;100.00;99991.44;10446448;28;20156;-88
2023/12/13 20:45:33;;;;;;;36.78;22.60;;;;;;;6.31;100.00;100005.97;10487840;28;20115;-89
2023/12/13 20:50:34;;;;;;;36.00;24.27;;;;;;;6.24;100.00;100017.78;10468965;28;20032;-89
2023/12/13 20:55:35;;;;;;;42.40;22.88;;;;;;;6.23;100.00;100021.19;10486207;28;20567;-88
2023/12/13 21:00:36;;;;;;;34.92;25.50;;;;;;;6.19;100.00;100037.44;10487425;28;20514;-88
2023/12/13 21:05:36;;;;;;;46.42;26.55;;;;;;;6.10;100.00;100049.94;10486416;28;20132;-84
2023/12/13 21:10:37;;;;;;;44.88;25.45;;;;;;;6.00;100.00;100053.72;10502944;28;21682;-88
2023/12/13 21:15:38;;;;;;;41.22;24.88;;;;;;;5.98;100.00;100061.44;10436608;28;20075;-89
2023/12/13 21:20:38;;;;;;;45.85;25.40;;;;;;;5.99;100.00;100073.63;10489699;28;20120;-90
2023/12/13 21:25:39;;;;;;;37.15;24.02;;;;;;;5.96;100.00;100075.16;10468214;28;20518;-88
2023/12/13 21:30:39;;;;;;;42.58;26.02;;;;;;;5.92;100.00;100087.09;10487680;28;20131;-88
2023/12/13 21:35:40;;;;;;;45.53;23.85;;;;;;;5.87;100.00;100099.81;10486949;28;20187;-88
2023/12/13 21:40:41;;;;;;;48.13;24.03;;;;;;;5.83;100.00;100104.78;10440402;28;20076;-87
2023/12/13 21:45:42;;;;;;;51.45;32.50;;;;;;;5.85;100.00;100124.81;10442854;28;20477;-84
2023/12/13 21:50:44;;;;;;;56.80;31.55;;;;;;;5.86;100.00;100131.78;10436695;28;20534;-85
2023/12/13 21:55:44;;;;;;;;;;;;;;;5.96;100.00;100140.09;10441731;28;20033;-84
2023/12/13 22:00:45;;;;;;;57.72;31.17;;;;;;;6.04;100.00;100146.63;10453544;28;19929;-88
2023/12/13 22:05:45;;;;;;;63.85;34.40;;;;;;;6.14;100.00;100154.09;10452000;28;20036;-89
2023/12/13 22:10:49;;;;;;;64.03;29.67;;;;;;;6.18;100.00;100168.16;10439089;28;20090;-87
2023/12/13 22:15:51;;;;;;;57.20;34.13;;;;;;;6.24;100.00;100185.78;10490721;28;20040;-88
2023/12/13 22:20:54;;;;;;;61.92;33.38;;;;;;;6.23;100.00;100184.00;10457376;28;20040;-89
2023/12/13 22:25:54;;;;;;;67.57;37.55;;;;;;;6.24;100.00;100199.69;10488098;28;20044;-88
2023/12/13 22:30:55;;;;;;;62.97;32.65;;;;;;;6.25;100.00;100204.06;10442947;28;20381;-89
2023/12/13 22:35:56;;;;;;;62.20;36.55;;;;;;;6.30;100.00;100212.09;10468987;28;20036;-88
2023/12/13 22:40:57;;;;;;;72.00;36.05;;;;;;;6.30;100.00;100222.50;10419965;28;20103;-88
2023/12/13 22:45:57;;;;;;;67.78;38.40;;;;;;;6.24;100.00;100224.75;10454574;28;20198;-87
2023/12/13 22:50:58;;;;;;;75.85;40.03;;;;;;;6.28;100.00;100251.03;10443248;28;20132;-89
2023/12/13 22:55:58;;;;;;;62.58;38.63;;;;;;;6.41;100.00;100251.69;10420694;28;20037;-88
2023/12/13 23:00:59;;;;;;;84.65;42.55;;;;;;;6.39;100.00;100272.38;10442083;28;20064;-89